Andrew, Iowa
Current Conditions -  °F | °C
As of 7:53 AM on Saturday 20 Dec 2014 (Local Time) from KDBQ Reporting Station
Haze Haze  
Wind Chill: 22°   Ceiling: 1900
Heat Index: 27°   Visibility: 4mi
Dew Point: 24°   Wind: 5mph
Humidity: 89%   Direction: 130°SE
Pressure: 30.22"   Gusts: NA
Location:  42.15°N, 90.59°W
Report Text: KDBQ 201353Z AUTO 13004KT 4SM BR BKN019 BKN024 OVC031 M03/M04 A3022 RMK AO2 SLP250 T10281044
Loading
Personal Weather Stations






























Interactive Weather Map New forecast layout! Learn more

10-Day Weather Forecast

Advertisements
Track Severe Weather on mobile